Timeline UpdatesTrip UpdatesNews PostsPvt PostsTravel TipsAdmin PostsConv PostsFollowed PostsChat RequestsBlog PostsPNR Posts

Disclaimer
Search
 
 
Wed Apr 23, 2014 21:03:01 ISTHomeTrainsΣChainsAtlasPNRForumGalleryNewsFAQTripsMembersLoginFeedback
No Recent News for this Train
Other Trains in the News **new
Latest...
-
Tue Feb 11, 2014 (11:47AM)
⇐ Return Journey: Train# 13019

13020/Bagh Express

Apr 15 (7:52AM)
Change Departure Station:
Change Arrival Station:
Post a Train Travel TipPost a Train Travel Tip **new
Post a Comment/Question/Picture/VideoPost a Comment/Question/Picture/Video
Pantry/Catering
✕ NO Pantry Car
✓ Catering Avbl
Loco/Rake Reversals
RMU/Rampur Junction (3); LJN/Lucknow Junction (6);
RSA - Rake Sharing
Rake/Coach Composition
LOCO-SLR-GS-GS-A1-B1-S7-S6-S5-S4-S3-S2-S1-GS-GS-GS-SLR
Loco
IZN WDP-4D (KGM-BJU); HWH WAP-4 (BJU-HWH)
News    PNR    Forum    Time-Table    Availability    Fare Chart    Map    Arr/Dep History    Trips    Gallery    ΣChains    X/O    Timeline    
Travel Time: 35h 18m    57 halts    Distance: 1332 km    Avg Speed: 37 km/hr
Type: Mail/Express
Zone: ER/Eastern
Departs @ 21:55 (Avg 2m late)
Platform# 1
SMTWTFS
Kathgodam/KGM 
Arrives @ 09:13 +2 nights (Avg 36m late)
Platform# ???
SMTWTFS
Andal Junction/UDL 

57 halts. 220 intermediate Stations between Kathgodam and Andal Junction

Show ALL intermediate Stations  Show Old Time-Table

#CodeStation NameX/OArrivesAvgDepartsAvgHaltPFDay#KmSpeedElevZoneAddress
1KGM»Kathgodam (3)»  -21:55+2110.022520mNERKathgodam, Uttarakhand
2HDWHaldwani (3)  22:11+722:13+92m115.931443mNERHaldwani, Uttarakhand
3LKULal Kuan Junction (4)  22:45+322:50+35m--122.351262mNERLalkuan, Uttarakhand
4HLDDHaldi Road  22:59+523:01+52m--129.960236mNERNH 87, Uttarakhand
5RUPCRudrapur City  23:15+823:17+92m--143.964208mNERUdham Singh Nagar, Uttarakhand
6BLQRBilaspur Road  23:34+723:36+72m--161.937196mNERRampur, Uttar Pradesh
7RMURampur Junction (3)X00:20+100:45+1025m--288.871190mNRRampur, Uttar Pradesh
8BEBareilly Junction (4)X  01:38+2201:46+228m12151.864174mNRBareilly, Uttar Pradesh
9SPNShahjahanpur Junction (3)  02:52+1802:57+175m--2222.355156mNRShahjahanpur, Uttar Pradesh
10ROZARoza Junction (4)X  03:05+2003:07+292m--2229.669156mNRShahjahanpur, Uttar Pradesh
11HRIHardoi (5)X  03:55+2103:57+222m32285.251146mNRHardoi, Uttar Pradesh
12LJNLucknow Junction (6)X05:55+1006:20+1225m12386.314126mNERLucknow, Uttar Pradesh
13BNZBadshahnagar (2)  07:08+507:10+82m12397.437116mNERLucknow, Uttar Pradesh
14BBKBarabanki Junction (4)X  07:50+707:54+84m--2422.065122mNRPin-225001, Uttar Pradesh
15JLDJarwal Road (2)  08:34+1508:36+162m--2465.171112mNERBehraich, Uttar Pradesh
16GDGonda Junction (3)X  09:15+3109:25+2710m22511.376110mNERGonda 271001, Uttar Pradesh
17BSTBasti (4)  10:35+2510:40+255m--2599.78190mNERBasti 272001, Uttar Pradesh
18KLDKhalilabad (3)X  11:02+2911:04+302m--2629.22786mNERKhalilabad- 272175, Uttar Pradesh
19GKPGorakhpur Junction (10)X  12:20+612:40+820m--2663.26484mNERGorakhpur 273001, Uttar Pradesh
20CCChauri Chaura (2)  13:03+3513:05+372m--2687.56584mNERGorakhpur- PinCode:- 273201, Uttar Pradesh
21DEOSDeoria Sadar (3)  13:28+4213:30+442m--2712.35079mNERDeoria- 274001, Uttar Pradesh
22BTTBhatni Junction (5)  13:55+4514:00+465m--2733.15973mNERDeoria, Uttar Pradesh
23BHTRBhatpar Rani (2)X  14:13+4914:15+492m--2745.96173mNERDeoria, Uttar Pradesh
24BTKBankata (2)  14:23+5014:25+512m--2754.03573mNERDeoria, Uttar Pradesh
25MWMairwa (2)X  14:36+4814:38+482m--2760.53173mNERMairwa, Bihar
26ZRDEJiradei (2)X  14:59+3815:01+392m--2771.54469mNERSiwan, Bihar
27SVSiwan Junction (4)X  15:15+3815:25+3410m--2781.87170mNERSiwan, Bihar
28DDADuraundha Junction (3)  15:40+3715:42+372m--2799.65464mNERDistt: Siwan, Bihar
29CWChainwa (2)  15:51+3715:53+372m--2807.72463mNERSiwan, Bihar
30EKMAEkma (3)X  16:11+2816:13+282m--2815.12664mNERSaran, Bihar
31DDPDaudpur (2)XO  16:33+1816:35+202m--2823.72359mNERChhapra, Bihar
32CPRChhapra Junction (6)  17:25+517:35+710m--2843.06258mNERDistt: Saran, Bihar
33DGADighwara (2)X  18:05+2218:07+232m--2873.97160mECR06158-281240, Bihar
34NYONayagaon (2)  18:17+3018:19+352m--2885.73453mECRNayagaon Sarai, Bihar
35SEESonpur Junction (4)X  18:39+4318:47+1:118m--2897.02556mECRSaran, Bihar
36HJPHajipur Junction (3)  19:00+1:1319:02+1:252m--2902.57955mECR06224-272230, Bihar
37BNRBhagwanpur (3)  19:17+1:3919:19+1:412m--2922.26260mECRBhagwanpur, Bihar
38GRLGoraul (2)X  19:27+1:4519:29+1:472m12930.53057mECRNational Highway 77, Bihar
39MFPMuzaffarpur Junction (6)X  20:20+1:5420:30+1:5410m22956.47257mECRMuzaffarpur, Bihar
40DOLDholi (2)  20:51+2:0320:53+2:042m--2981.56752mECRDistt. Muzaffarpur, Bihar
41KRBPKhudiram B Pusa  21:05+2:0621:07+2:062m--2994.96352mECRDistt. Samastipur, Bihar
42KPGMKarpurigram (3)X  21:14+2:0821:16+2:122m--21002.21651mECRState Highway 49, Bihar
43SPJSamastipur Junction (9)X  21:40+2:0321:50+2:0310m--21008.57055mECRSamastipur, Bihar
44DSSDalsingh Sarai (2)  22:10+2:0822:12+2:082m221031.76049mECR06278-221238, Bihar
45BCABachwara JunctionO  22:23+2:1022:25+2:112m--21042.71846mECRBegusarai, Bihar
46BJUBarauni Junction (9)23:20+1:4700:10+1:3450m--21059.128 ECRBegusarai, Bihar
47KIULKiul Junction (5)  01:35+1:5601:40+1:545m--31098.33853mECRDist. Lakhisarai, Bihar
48JAJJhajha (4)X  03:05+1:1803:15+1:1810m--31151.670143mECRJhajha, Bihar
49STLSimultala (2)X  03:31+1:2603:33+1:262m--31170.366247mERSimultala, Bihar
50JSMEJasidih Junction (5)X  03:56+1:4704:01+1:535m--31195.722271mERJasidih, Jharkhand
51MDPMadhupur Junction (4)  05:20+1:5105:24+1:144m--31224.863254mER06432-224478, Jharkhand
52VDSVidyasagar (2)X  05:47+1:1405:49+1:142m231249.045250mERJamtara, Jharkhand
53JMTJamtara (2)  06:13+1:0706:15+1:092m231266.945201mERJamtara, Jharkhand
54CRJChittaranjan (3)  06:34+1:0706:36+1:092m231281.239182mERMihijam, Jharkhand
55RNPRRupnarayanpur (3)  06:43+1:0906:45+1:092m131285.711191mERChittaranjan, West Bengal
56STNSitarampur Junction (5)XO  07:48+5007:50+482m331297.513139mERG T Rd Before Asansol, West Bengal
57ASNAsansol Junction (7)  08:30+3008:45+3115m--31306.272113mERDist - bardhaman, West Bengal
58RNGRaniGanj (4)  09:00+3809:02+392m--31324.44092mERRaniganj, West Bengal
59UDL•Andal Junction (6)•X  09:13+3609:15+352m--31331.77386mERAndal, West Bengal
60DGRDurgapur (5)X  09:29+4109:31+402m--31348.78571mERDurgapur, West Bengal
61PANPanagarh (4)X  09:42+4309:44+432m--31364.36170mERKaksa, West Bengal
62BWNBarddhaman Junction (8)X  10:31+3710:36+385m--31412.25934mERDist - Barddhaman, West Bengal
63BDCBandel Junction (7)  11:44+3011:49+305m--31479.54714mERdist - HOOGHLY, West Bengal
64HWHKolkata Howrah Junction (23)  12:40+29-1331519.1-10mERHowrah 711101, West Bengal
Scroll to Top
Scroll to Bottom